sensor_id;sensor_type;location;lat;lon;timestamp;pressure;altitude;pressure_sealevel;temperature;humidity
42761;BME280;31672;47.638;19.026;2023-03-21T00:04:27;100103.75;;;10.97;69.23
42761;BME280;31672;47.638;19.026;2023-03-21T00:09:52;100105.56;;;11.05;68.72
42761;BME280;31672;47.638;19.026;2023-03-21T00:15:09;100105.94;;;10.93;68.63
42761;BME280;31672;47.638;19.026;2023-03-21T00:20:13;100098.03;;;10.77;68.90
42761;BME280;31672;47.638;19.026;2023-03-21T00:25:19;100100.41;;;10.64;68.92
42761;BME280;31672;47.638;19.026;2023-03-21T00:30:22;100096.09;;;10.55;69.62
42761;BME280;31672;47.638;19.026;2023-03-21T00:35:25;100085.84;;;10.43;69.67
42761;BME280;31672;47.638;19.026;2023-03-21T00:40:48;100079.38;;;10.30;69.91
42761;BME280;31672;47.638;19.026;2023-03-21T00:45:51;100068.94;;;10.20;70.66
42761;BME280;31672;47.638;19.026;2023-03-21T00:50:56;100076.91;;;10.12;71.05
42761;BME280;31672;47.638;19.026;2023-03-21T00:56:02;100070.94;;;10.02;71.38
42761;BME280;31672;47.638;19.026;2023-03-21T01:01:05;100066.81;;;9.91;71.44
42761;BME280;31672;47.638;19.026;2023-03-21T01:06:11;100066.63;;;9.84;72.22
42761;BME280;31672;47.638;19.026;2023-03-21T01:11:18;100052.88;;;9.81;72.46
42761;BME280;31672;47.638;19.026;2023-03-21T01:16:23;100045.06;;;9.79;72.71
42761;BME280;31672;47.638;19.026;2023-03-21T01:21:26;100045.41;;;9.76;72.84
42761;BME280;31672;47.638;19.026;2023-03-21T01:26:29;100047.56;;;9.73;73.03
42761;BME280;31672;47.638;19.026;2023-03-21T01:31:32;100051.69;;;9.75;73.14
42761;BME280;31672;47.638;19.026;2023-03-21T01:36:35;100052.53;;;9.76;73.00
42761;BME280;31672;47.638;19.026;2023-03-21T01:41:41;100052.34;;;9.77;72.93
42761;BME280;31672;47.638;19.026;2023-03-21T01:46:50;100045.75;;;9.73;72.70
42761;BME280;31672;47.638;19.026;2023-03-21T01:52:23;100053.38;;;9.68;72.96
42761;BME280;31672;47.638;19.026;2023-03-21T01:57:45;100047.72;;;9.63;73.36
42761;BME280;31672;47.638;19.026;2023-03-21T02:03:07;100048.53;;;9.63;73.55
42761;BME280;31672;47.638;19.026;2023-03-21T02:08:22;100052.03;;;9.64;73.85
42761;BME280;31672;47.638;19.026;2023-03-21T02:13:40;100051.72;;;9.67;73.96
42761;BME280;31672;47.638;19.026;2023-03-21T02:42:06;100046.88;;;9.71;73.02
42761;BME280;31672;47.638;19.026;2023-03-21T02:47:18;100056.34;;;9.73;73.11
42761;BME280;31672;47.638;19.026;2023-03-21T02:52:28;100048.22;;;9.75;73.05
42761;BME280;31672;47.638;19.026;2023-03-21T02:57:42;100042.41;;;9.79;72.60
42761;BME280;31672;47.638;19.026;2023-03-21T03:02:48;100044.25;;;9.79;72.76
42761;BME280;31672;47.638;19.026;2023-03-21T03:15:18;100039.59;;;9.81;72.38
42761;BME280;31672;47.638;19.026;2023-03-21T03:30:47;100057.66;;;9.45;72.60
42761;BME280;31672;47.638;19.026;2023-03-21T03:36:12;100050.88;;;9.50;73.48
42761;BME280;31672;47.638;19.026;2023-03-21T03:41:41;100045.56;;;9.58;73.33
42761;BME280;31672;47.638;19.026;2023-03-21T03:47:40;100065.97;;;9.74;72.87
42761;BME280;31672;47.638;19.026;2023-03-21T03:58:22;100061.13;;;10.10;71.55
42761;BME280;31672;47.638;19.026;2023-03-21T04:03:43;100054.81;;;10.11;70.92
42761;BME280;31672;47.638;19.026;2023-03-21T04:08:52;100048.03;;;10.09;71.14
42761;BME280;31672;47.638;19.026;2023-03-21T04:13:56;100055.81;;;10.10;71.04
42761;BME280;31672;47.638;19.026;2023-03-21T04:18:59;100053.69;;;10.14;70.78
42761;BME280;31672;47.638;19.026;2023-03-21T04:24:04;100040.72;;;10.11;70.83
42761;BME280;31672;47.638;19.026;2023-03-21T04:29:09;100039.25;;;10.08;70.94
42761;BME280;31672;47.638;19.026;2023-03-21T04:34:12;100035.75;;;10.08;70.97
42761;BME280;31672;47.638;19.026;2023-03-21T04:39:16;100033.44;;;10.05;71.08
42761;BME280;31672;47.638;19.026;2023-03-21T04:44:19;100029.78;;;9.98;70.99
42761;BME280;31672;47.638;19.026;2023-03-21T04:49:22;100043.06;;;9.98;71.14
42761;BME280;31672;47.638;19.026;2023-03-21T04:54:25;100049.69;;;9.93;71.15
42761;BME280;31672;47.638;19.026;2023-03-21T04:59:28;100051.53;;;9.93;71.43
42761;BME280;31672;47.638;19.026;2023-03-21T05:04:31;100047.72;;;9.87;71.39
42761;BME280;31672;47.638;19.026;2023-03-21T05:09:34;100054.50;;;9.82;71.82
42761;BME280;31672;47.638;19.026;2023-03-21T05:14:37;100055.19;;;9.84;72.20
42761;BME280;31672;47.638;19.026;2023-03-21T05:19:40;100056.69;;;9.86;72.34
42761;BME280;31672;47.638;19.026;2023-03-21T05:24:45;100056.69;;;9.86;72.41
42761;BME280;31672;47.638;19.026;2023-03-21T05:29:52;100071.63;;;9.96;72.29
42761;BME280;31672;47.638;19.026;2023-03-21T05:34:55;100066.94;;;10.06;71.88
42761;BME280;31672;47.638;19.026;2023-03-21T05:39:58;100071.41;;;10.22;71.33
42761;BME280;31672;47.638;19.026;2023-03-21T05:45:01;100075.88;;;10.37;70.70
42761;BME280;31672;47.638;19.026;2023-03-21T05:50:05;100077.34;;;10.56;70.16
42761;BME280;31672;47.638;19.026;2023-03-21T05:55:09;100080.13;;;10.71;69.71
42761;BME280;31672;47.638;19.026;2023-03-21T06:00:13;100073.09;;;10.86;69.29
42761;BME280;31672;47.638;19.026;2023-03-21T06:05:16;100074.69;;;11.04;68.60
42761;BME280;31672;47.638;19.026;2023-03-21T06:10:19;100076.91;;;11.23;68.29
42761;BME280;31672;47.638;19.026;2023-03-21T06:15:22;100083.09;;;11.38;67.35
42761;BME280;31672;47.638;19.026;2023-03-21T06:20:26;100081.06;;;11.48;67.07
42761;BME280;31672;47.638;19.026;2023-03-21T06:25:29;100078.28;;;11.65;66.91
42761;BME280;31672;47.638;19.026;2023-03-21T06:30:32;100067.22;;;11.76;67.05
42761;BME280;31672;47.638;19.026;2023-03-21T06:35:35;100069.47;;;11.87;66.28
42761;BME280;31672;47.638;19.026;2023-03-21T06:40:39;100073.09;;;11.94;66.26
42761;BME280;31672;47.638;19.026;2023-03-21T06:45:44;100076.69;;;12.01;65.62
42761;BME280;31672;47.638;19.026;2023-03-21T06:50:49;100087.06;;;12.11;64.94
42761;BME280;31672;47.638;19.026;2023-03-21T06:55:53;100083.53;;;12.19;65.04
42761;BME280;31672;47.638;19.026;2023-03-21T07:00:59;100088.66;;;12.35;64.25
42761;BME280;31672;47.638;19.026;2023-03-21T07:06:08;100082.91;;;12.46;64.49
42761;BME280;31672;47.638;19.026;2023-03-21T07:11:15;100086.97;;;12.57;63.39
42761;BME280;31672;47.638;19.026;2023-03-21T07:16:19;100080.69;;;12.65;63.36
42761;BME280;31672;47.638;19.026;2023-03-21T07:21:23;100076.19;;;12.80;62.85
42761;BME280;31672;47.638;19.026;2023-03-21T07:26:26;100074.59;;;13.00;61.89
42761;BME280;31672;47.638;19.026;2023-03-21T07:31:29;100071.28;;;13.28;61.55
42761;BME280;31672;47.638;19.026;2023-03-21T07:36:32;100077.03;;;13.68;60.88
42761;BME280;31672;47.638;19.026;2023-03-21T07:41:35;100065.28;;;14.11;59.07
42761;BME280;31672;47.638;19.026;2023-03-21T07:46:39;100063.09;;;14.50;57.44
42761;BME280;31672;47.638;19.026;2023-03-21T07:51:42;100064.50;;;14.45;56.41
42761;BME280;31672;47.638;19.026;2023-03-21T07:56:45;100064.56;;;14.52;57.19
42761;BME280;31672;47.638;19.026;2023-03-21T08:01:49;100070.28;;;14.84;56.65
42761;BME280;31672;47.638;19.026;2023-03-21T08:06:53;100058.00;;;15.70;50.48
42761;BME280;31672;47.638;19.026;2023-03-21T08:11:57;100059.16;;;16.74;48.33
42761;BME280;31672;47.638;19.026;2023-03-21T08:17:00;100062.16;;;17.04;46.87
42761;BME280;31672;47.638;19.026;2023-03-21T08:22:03;100057.50;;;17.24;45.75
42761;BME280;31672;47.638;19.026;2023-03-21T08:27:08;100059.50;;;17.74;45.58
42761;BME280;31672;47.638;19.026;2023-03-21T08:32:11;100064.00;;;18.05;44.05
42761;BME280;31672;47.638;19.026;2023-03-21T08:37:14;100063.13;;;18.11;42.87
42761;BME280;31672;47.638;19.026;2023-03-21T08:42:19;100063.59;;;18.26;41.93
42761;BME280;31672;47.638;19.026;2023-03-21T08:47:23;100060.41;;;18.79;41.01
42761;BME280;31672;47.638;19.026;2023-03-21T08:52:27;100060.25;;;18.92;39.10
42761;BME280;31672;47.638;19.026;2023-03-21T08:57:30;100071.16;;;18.97;39.22
42761;BME280;31672;47.638;19.026;2023-03-21T09:02:33;100063.00;;;19.04;39.02
42761;BME280;31672;47.638;19.026;2023-03-21T09:07:39;100068.28;;;19.11;38.11
42761;BME280;31672;47.638;19.026;2023-03-21T09:12:42;100063.09;;;18.97;38.04
42761;BME280;31672;47.638;19.026;2023-03-21T09:17:46;100063.16;;;18.73;38.12
42761;BME280;31672;47.638;19.026;2023-03-21T09:22:54;100068.59;;;18.66;39.00
42761;BME280;31672;47.638;19.026;2023-03-21T09:28:01;100062.56;;;18.70;39.40
42761;BME280;31672;47.638;19.026;2023-03-21T09:33:06;100067.16;;;18.45;39.39
42761;BME280;31672;47.638;19.026;2023-03-21T09:38:10;100060.91;;;18.26;38.90
42761;BME280;31672;47.638;19.026;2023-03-21T09:49:03;100054.31;;;18.65;38.81
42761;BME280;31672;47.638;19.026;2023-03-21T09:54:27;100045.84;;;19.17;38.59
42761;BME280;31672;47.638;19.026;2023-03-21T09:59:37;100044.97;;;19.65;37.79
42761;BME280;31672;47.638;19.026;2023-03-21T10:04:44;100028.25;;;19.86;36.12
42761;BME280;31672;47.638;19.026;2023-03-21T10:09:50;100029.78;;;20.41;35.04
42761;BME280;31672;47.638;19.026;2023-03-21T10:14:56;100036.00;;;19.94;37.14
42761;BME280;31672;47.638;19.026;2023-03-21T10:20:17;100033.78;;;19.91;36.37
42761;BME280;31672;47.638;19.026;2023-03-21T10:25:34;100035.50;;;19.74;36.48
42761;BME280;31672;47.638;19.026;2023-03-21T10:30:53;100033.13;;;19.06;37.77
42761;BME280;31672;47.638;19.026;2023-03-21T10:36:25;100035.53;;;19.14;36.62
42761;BME280;31672;47.638;19.026;2023-03-21T10:41:30;100035.88;;;19.17;36.27
42761;BME280;31672;47.638;19.026;2023-03-21T10:46:34;100034.81;;;19.48;36.49
42761;BME280;31672;47.638;19.026;2023-03-21T10:51:38;100013.50;;;20.00;35.93
42761;BME280;31672;47.638;19.026;2023-03-21T10:57:07;100006.03;;;20.78;35.11
42761;BME280;31672;47.638;19.026;2023-03-21T11:02:25;100007.78;;;20.84;34.69
42761;BME280;31672;47.638;19.026;2023-03-21T11:07:31;99999.03;;;21.05;33.48
42761;BME280;31672;47.638;19.026;2023-03-21T11:12:38;99993.31;;;21.19;33.99
42761;BME280;31672;47.638;19.026;2023-03-21T11:17:42;99987.97;;;21.52;32.22
42761;BME280;31672;47.638;19.026;2023-03-21T11:22:48;99974.69;;;21.34;31.96
42761;BME280;31672;47.638;19.026;2023-03-21T11:27:53;99964.38;;;21.64;31.30
42761;BME280;31672;47.638;19.026;2023-03-21T11:33:01;99963.97;;;21.39;32.65
42761;BME280;31672;47.638;19.026;2023-03-21T11:38:25;99960.44;;;21.10;33.20
42761;BME280;31672;47.638;19.026;2023-03-21T11:43:37;99959.50;;;20.88;32.57
42761;BME280;31672;47.638;19.026;2023-03-21T11:48:44;99945.03;;;20.65;34.12
42761;BME280;31672;47.638;19.026;2023-03-21T11:54:06;99952.78;;;20.90;32.94
42761;BME280;31672;47.638;19.026;2023-03-21T12:15:41;99944.88;;;19.08;35.31
42761;BME280;31672;47.638;19.026;2023-03-21T12:26:25;99937.34;;;17.70;37.96
42761;BME280;31672;47.638;19.026;2023-03-21T12:37:15;99933.97;;;16.93;39.64
42761;BME280;31672;47.638;19.026;2023-03-21T12:42:51;99918.63;;;17.56;38.65
42761;BME280;31672;47.638;19.026;2023-03-21T13:10:15;99902.66;;;18.05;37.52
42761;BME280;31672;47.638;19.026;2023-03-21T13:26:40;99882.97;;;18.29;35.76
42761;BME280;31672;47.638;19.026;2023-03-21T13:31:47;99885.13;;;17.84;37.28
42761;BME280;31672;47.638;19.026;2023-03-21T13:36:55;99874.69;;;17.69;37.88
42761;BME280;31672;47.638;19.026;2023-03-21T13:42:04;99873.25;;;17.91;36.81
42761;BME280;31672;47.638;19.026;2023-03-21T13:47:50;99870.41;;;18.05;35.52
42761;BME280;31672;47.638;19.026;2023-03-21T13:53:19;99862.19;;;18.18;35.37
42761;BME280;31672;47.638;19.026;2023-03-21T14:03:46;99848.34;;;18.33;34.42
42761;BME280;31672;47.638;19.026;2023-03-21T14:08:49;99852.16;;;18.43;34.89
42761;BME280;31672;47.638;19.026;2023-03-21T14:13:53;99831.16;;;18.64;35.09
42761;BME280;31672;47.638;19.026;2023-03-21T14:19:02;99839.00;;;18.95;35.44
42761;BME280;31672;47.638;19.026;2023-03-21T14:24:11;99828.16;;;19.14;33.83
42761;BME280;31672;47.638;19.026;2023-03-21T14:29:26;99833.03;;;19.05;33.50
42761;BME280;31672;47.638;19.026;2023-03-21T14:34:34;99823.31;;;19.04;33.54
42761;BME280;31672;47.638;19.026;2023-03-21T14:39:38;99809.88;;;19.28;33.39
42761;BME280;31672;47.638;19.026;2023-03-21T14:44:48;99812.22;;;19.36;32.85
42761;BME280;31672;47.638;19.026;2023-03-21T14:49:59;99808.25;;;19.38;32.67
42761;BME280;31672;47.638;19.026;2023-03-21T14:55:14;99812.44;;;19.58;33.55
42761;BME280;31672;47.638;19.026;2023-03-21T15:00:27;99818.91;;;19.57;32.86
42761;BME280;31672;47.638;19.026;2023-03-21T15:05:35;99814.56;;;19.20;34.48
42761;BME280;31672;47.638;19.026;2023-03-21T15:10:41;99814.78;;;19.07;35.03
42761;BME280;31672;47.638;19.026;2023-03-21T15:15:44;99821.44;;;19.05;35.54
42761;BME280;31672;47.638;19.026;2023-03-21T15:20:49;99816.06;;;19.05;35.20
42761;BME280;31672;47.638;19.026;2023-03-21T15:25:53;99819.75;;;18.68;36.05
42761;BME280;31672;47.638;19.026;2023-03-21T15:30:56;99801.84;;;18.44;36.68
42761;BME280;31672;47.638;19.026;2023-03-21T15:35:59;99807.03;;;18.27;36.57
42761;BME280;31672;47.638;19.026;2023-03-21T15:46:43;99808.88;;;17.97;36.59
42761;BME280;31672;47.638;19.026;2023-03-21T15:57:03;99810.81;;;17.71;36.68
42761;BME280;31672;47.638;19.026;2023-03-21T16:02:21;99816.50;;;17.38;36.93
42761;BME280;31672;47.638;19.026;2023-03-21T16:07:26;99812.03;;;16.82;38.13
42761;BME280;31672;47.638;19.026;2023-03-21T16:12:29;99828.63;;;16.34;39.09
42761;BME280;31672;47.638;19.026;2023-03-21T16:17:35;99820.97;;;15.86;40.38
42761;BME280;31672;47.638;19.026;2023-03-21T16:22:41;99831.34;;;15.49;41.65
42761;BME280;31672;47.638;19.026;2023-03-21T16:27:46;99828.28;;;15.19;42.84
42761;BME280;31672;47.638;19.026;2023-03-21T16:32:50;99837.13;;;14.87;43.72
42761;BME280;31672;47.638;19.026;2023-03-21T16:37:53;99843.06;;;14.62;44.54
42761;BME280;31672;47.638;19.026;2023-03-21T16:42:56;99844.41;;;14.38;44.99
42761;BME280;31672;47.638;19.026;2023-03-21T16:47:59;99859.56;;;14.18;45.66
42761;BME280;31672;47.638;19.026;2023-03-21T16:53:03;99864.63;;;14.00;46.29
42761;BME280;31672;47.638;19.026;2023-03-21T16:58:07;99873.38;;;13.87;46.80
42761;BME280;31672;47.638;19.026;2023-03-21T17:03:15;99873.69;;;13.71;46.99
42761;BME280;31672;47.638;19.026;2023-03-21T17:08:21;99870.75;;;13.59;47.42
42761;BME280;31672;47.638;19.026;2023-03-21T17:13:24;99872.34;;;13.53;47.70
42761;BME280;31672;47.638;19.026;2023-03-21T17:18:27;99883.59;;;13.49;47.94
42761;BME280;31672;47.638;19.026;2023-03-21T17:23:31;99885.97;;;13.37;48.20
42761;BME280;31672;47.638;19.026;2023-03-21T17:28:37;99887.50;;;13.25;48.29
42761;BME280;31672;47.638;19.026;2023-03-21T17:33:42;99883.88;;;13.11;48.94
42761;BME280;31672;47.638;19.026;2023-03-21T17:38:45;99887.31;;;13.05;48.81
42761;BME280;31672;47.638;19.026;2023-03-21T17:43:49;99888.38;;;12.89;49.02
42761;BME280;31672;47.638;19.026;2023-03-21T17:48:53;99896.00;;;12.71;49.70
42761;BME280;31672;47.638;19.026;2023-03-21T17:53:57;99893.94;;;12.51;50.37
42761;BME280;31672;47.638;19.026;2023-03-21T17:59:06;99903.78;;;12.51;50.55
42761;BME280;31672;47.638;19.026;2023-03-21T18:04:09;99905.00;;;12.48;50.52
42761;BME280;31672;47.638;19.026;2023-03-21T18:09:12;99907.13;;;12.38;50.22
42761;BME280;31672;47.638;19.026;2023-03-21T18:14:23;99918.44;;;12.25;50.87
42761;BME280;31672;47.638;19.026;2023-03-21T18:19:31;99914.59;;;12.13;51.68
42761;BME280;31672;47.638;19.026;2023-03-21T18:24:36;99910.75;;;12.01;52.00
42761;BME280;31672;47.638;19.026;2023-03-21T18:29:39;99915.97;;;11.94;52.07
42761;BME280;31672;47.638;19.026;2023-03-21T18:35:06;99923.31;;;11.92;52.46
42761;BME280;31672;47.638;19.026;2023-03-21T18:40:12;99924.44;;;11.83;52.55
42761;BME280;31672;47.638;19.026;2023-03-21T18:45:16;99931.09;;;11.79;52.78
42761;BME280;31672;47.638;19.026;2023-03-21T18:50:20;99936.31;;;11.72;52.96
42761;BME280;31672;47.638;19.026;2023-03-21T18:55:23;99935.78;;;11.77;52.84
42761;BME280;31672;47.638;19.026;2023-03-21T19:00:49;99935.09;;;11.75;53.07
42761;BME280;31672;47.638;19.026;2023-03-21T19:05:57;99936.84;;;11.68;53.06
42761;BME280;31672;47.638;19.026;2023-03-21T19:11:01;99942.50;;;11.50;53.51
42761;BME280;31672;47.638;19.026;2023-03-21T19:16:08;99941.53;;;11.28;53.98
42761;BME280;31672;47.638;19.026;2023-03-21T19:21:13;99953.94;;;11.13;54.44
42761;BME280;31672;47.638;19.026;2023-03-21T19:26:16;99953.34;;;11.03;55.02
42761;BME280;31672;47.638;19.026;2023-03-21T19:31:20;99956.00;;;11.03;55.27
42761;BME280;31672;47.638;19.026;2023-03-21T19:36:24;99936.09;;;10.98;55.35
42761;BME280;31672;47.638;19.026;2023-03-21T19:41:28;99946.34;;;11.10;55.21
42761;BME280;31672;47.638;19.026;2023-03-21T19:46:31;99952.41;;;11.18;55.30
42761;BME280;31672;47.638;19.026;2023-03-21T19:51:34;99948.81;;;11.34;54.62
42761;BME280;31672;47.638;19.026;2023-03-21T19:56:38;99953.03;;;11.43;54.89
42761;BME280;31672;47.638;19.026;2023-03-21T20:01:49;99942.59;;;11.42;54.42
42761;BME280;31672;47.638;19.026;2023-03-21T20:07:00;99954.97;;;11.49;54.38
42761;BME280;31672;47.638;19.026;2023-03-21T20:12:03;99965.16;;;11.46;54.29
42761;BME280;31672;47.638;19.026;2023-03-21T20:17:07;99969.81;;;11.44;54.06
42761;BME280;31672;47.638;19.026;2023-03-21T20:22:11;99966.97;;;11.45;54.21
42761;BME280;31672;47.638;19.026;2023-03-21T20:27:30;99984.44;;;11.25;54.64
42761;BME280;31672;47.638;19.026;2023-03-21T20:32:34;99980.91;;;11.10;55.25
42761;BME280;31672;47.638;19.026;2023-03-21T20:37:39;99982.59;;;11.03;55.49
42761;BME280;31672;47.638;19.026;2023-03-21T20:42:44;99993.81;;;10.90;55.69
42761;BME280;31672;47.638;19.026;2023-03-21T20:47:50;99991.09;;;10.67;55.99
42761;BME280;31672;47.638;19.026;2023-03-21T20:52:53;100008.50;;;10.38;56.61
42761;BME280;31672;47.638;19.026;2023-03-21T20:58:09;99998.09;;;10.04;57.06
42761;BME280;31672;47.638;19.026;2023-03-21T21:03:36;99994.31;;;9.74;58.24
42761;BME280;31672;47.638;19.026;2023-03-21T21:08:44;100012.88;;;9.58;59.04
42761;BME280;31672;47.638;19.026;2023-03-21T21:13:48;100008.75;;;9.47;59.83
42761;BME280;31672;47.638;19.026;2023-03-21T21:18:51;100016.72;;;9.55;60.94
42761;BME280;31672;47.638;19.026;2023-03-21T21:23:54;100013.56;;;9.60;60.68
42761;BME280;31672;47.638;19.026;2023-03-21T21:28:57;100015.88;;;9.63;60.88
42761;BME280;31672;47.638;19.026;2023-03-21T21:34:02;100021.53;;;9.60;61.16
42761;BME280;31672;47.638;19.026;2023-03-21T21:39:08;100023.03;;;9.54;61.71
42761;BME280;31672;47.638;19.026;2023-03-21T21:44:11;100018.22;;;9.50;61.92
42761;BME280;31672;47.638;19.026;2023-03-21T21:49:14;100019.34;;;9.47;61.94
42761;BME280;31672;47.638;19.026;2023-03-21T21:54:17;100025.16;;;9.43;62.37
42761;BME280;31672;47.638;19.026;2023-03-21T21:59:22;100021.19;;;9.38;62.64
42761;BME280;31672;47.638;19.026;2023-03-21T22:04:26;100026.16;;;9.42;62.71
42761;BME280;31672;47.638;19.026;2023-03-21T22:09:29;100025.50;;;9.48;62.54
42761;BME280;31672;47.638;19.026;2023-03-21T22:14:33;100036.78;;;9.58;62.42
42761;BME280;31672;47.638;19.026;2023-03-21T22:19:36;100045.22;;;9.70;62.10
42761;BME280;31672;47.638;19.026;2023-03-21T22:24:42;100050.03;;;9.74;61.87
42761;BME280;31672;47.638;19.026;2023-03-21T22:29:45;100062.97;;;9.77;62.00
42761;BME280;31672;47.638;19.026;2023-03-21T22:34:48;100074.09;;;9.73;62.03
42761;BME280;31672;47.638;19.026;2023-03-21T22:39:51;100077.72;;;9.63;61.84
42761;BME280;31672;47.638;19.026;2023-03-21T22:44:54;100081.88;;;9.50;62.32
42761;BME280;31672;47.638;19.026;2023-03-21T22:49:57;100067.56;;;9.34;62.57
42761;BME280;31672;47.638;19.026;2023-03-21T22:55:00;100066.72;;;9.18;62.58
42761;BME280;31672;47.638;19.026;2023-03-21T23:00:08;100072.94;;;8.92;63.70
42761;BME280;31672;47.638;19.026;2023-03-21T23:05:15;100065.72;;;8.68;64.29
42761;BME280;31672;47.638;19.026;2023-03-21T23:10:18;100068.75;;;8.47;64.95
42761;BME280;31672;47.638;19.026;2023-03-21T23:15:22;100058.47;;;8.18;66.15
42761;BME280;31672;47.638;19.026;2023-03-21T23:20:25;100067.13;;;8.02;66.19
42761;BME280;31672;47.638;19.026;2023-03-21T23:25:28;100073.25;;;7.85;66.29
42761;BME280;31672;47.638;19.026;2023-03-21T23:30:32;100077.63;;;7.68;66.33
42761;BME280;31672;47.638;19.026;2023-03-21T23:35:35;100062.59;;;7.51;67.11
42761;BME280;31672;47.638;19.026;2023-03-21T23:40:40;100070.34;;;7.35;67.99
42761;BME280;31672;47.638;19.026;2023-03-21T23:45:43;100081.06;;;7.15;68.28
42761;BME280;31672;47.638;19.026;2023-03-21T23:50:47;100083.66;;;6.97;68.33
42761;BME280;31672;47.638;19.026;2023-03-21T23:55:50;100084.00;;;6.85;69.51
